KFOZ

Bigfork Municipal Airport

Bigfork, Minnesota, USA
METAR KFOZ 181433Z AUTO 17005KT 4SM BR OVC004 18/17 A3010 RMK AO2
Observed Flight Rules
Aug-18 @ 14:33 UTC (19 minutes ago) Instrument Flight Rules
Wind Visibility Clouds Conditions
170° at 5 knots 4 miles
  • Overcast at 400' AGL
  • Mist
Temperatures Readings
Current 18°C / 64°F
Dewpoint 17°C / 63°F
Humidity 94%
Altimeter 30.1" Hg
Pressure 1019 hPa
Elevation 411
METAR KFOZ 181433Z AUTO 17005KT 4SM BR OVC004 18/17 A3010 RMK AO2
Observed Flight Rules
Aug-18 @ 14:33 UTC
(19 minutes ago)
LIFR
Wind Visibility
170° at 5 knots 4 miles
Clouds
  • Overcast at 400' AGL
Conditions
  • Mist
Temperature Dewpoint
18°C / 64°F 17°C / 63°F
Humidity Altimeter Pressure
94% 30.1" Hg 1019 hPa